createdAt,value
2022-09-23T00:01:20.450Z,9.60
2022-09-23T00:03:49.259Z,9.45
2022-09-23T00:06:19.925Z,10.30
2022-09-23T00:08:49.553Z,9.80
2022-09-23T00:11:21.560Z,8.93
2022-09-23T00:13:51.720Z,9.73
2022-09-23T00:16:25.429Z,8.73
2022-09-23T00:18:52.847Z,9.10
2022-09-23T00:21:22.308Z,7.55
2022-09-23T00:23:49.644Z,7.60
2022-09-23T00:26:19.054Z,6.85
2022-09-23T00:28:47.725Z,7.05
2022-09-23T00:31:19.472Z,6.70
2022-09-23T00:36:15.732Z,6.55
2022-09-23T00:38:44.643Z,7.00
2022-09-23T00:41:18.423Z,6.72
2022-09-23T00:43:53.565Z,6.85
2022-09-23T00:46:28.580Z,6.57
2022-09-23T00:49:02.947Z,6.80
2022-09-23T00:51:36.820Z,6.80
2022-09-23T00:54:06.376Z,6.95
2022-09-23T00:56:35.265Z,6.88
2022-09-23T00:59:03.654Z,6.68
2022-09-23T01:01:31.125Z,6.45
2022-09-23T01:03:59.148Z,6.88
2022-09-23T01:06:26.532Z,6.68
2022-09-23T01:08:53.872Z,7.13
2022-09-23T01:11:32.229Z,6.53
2022-09-23T01:14:21.788Z,7.55
2022-09-23T01:17:03.497Z,7.15
2022-09-23T01:22:21.896Z,6.57
2022-09-23T01:24:59.400Z,7.00
2022-09-23T01:27:41.840Z,6.57
2022-09-23T01:30:35.270Z,7.03
2022-09-23T01:33:10.051Z,6.93
2022-09-23T01:36:16.120Z,5.85
2022-09-23T01:39:15.188Z,6.18
2022-09-23T01:41:45.576Z,7.13
2022-09-23T01:44:39.089Z,7.03
2022-09-23T01:47:15.572Z,6.85
2022-09-23T01:49:58.568Z,7.63
2022-09-23T01:52:35.899Z,7.03
2022-09-23T01:55:18.941Z,6.88
2022-09-23T01:57:58.463Z,7.40
2022-09-23T02:00:31.956Z,7.93
2022-09-23T02:03:16.468Z,7.25
2022-09-23T02:05:52.733Z,7.72
2022-09-23T02:08:27.725Z,7.70
2022-09-23T02:11:03.581Z,7.72
2022-09-23T02:13:45.948Z,7.32
2022-09-23T02:16:29.738Z,7.95
2022-09-23T02:19:04.498Z,7.78
2022-09-23T02:21:43.440Z,7.70
2022-09-23T02:24:32.479Z,7.85
2022-09-23T02:27:13.141Z,7.20
2022-09-23T02:29:57.101Z,7.82
2022-09-23T02:32:36.491Z,7.78
2022-09-23T02:35:23.358Z,7.53
2022-09-23T02:38:09.962Z,7.63
2022-09-23T02:41:04.655Z,7.22
2022-09-23T02:43:39.163Z,7.28
2022-09-23T02:46:07.898Z,7.50
2022-09-23T02:48:42.443Z,7.88
2022-09-23T02:51:10.125Z,7.38
2022-09-23T02:53:38.173Z,7.65
2022-09-23T02:56:19.604Z,7.22
2022-09-23T02:58:49.874Z,7.85
2022-09-23T03:01:32.436Z,7.40
2022-09-23T03:04:05.033Z,8.05
2022-09-23T03:06:51.497Z,7.30
2022-09-23T03:09:41.778Z,7.90
2022-09-23T03:12:18.762Z,7.70
2022-09-23T03:15:09.911Z,7.55
2022-09-23T03:18:02.711Z,7.73
2022-09-23T03:20:38.404Z,7.80
2022-09-23T03:23:08.765Z,8.18
2022-09-23T03:25:40.225Z,7.35
2022-09-23T03:28:09.344Z,8.05
2022-09-23T03:30:37.757Z,7.72
2022-09-23T03:33:07.757Z,7.82
2022-09-23T03:36:07.402Z,7.90
2022-09-23T03:38:41.499Z,7.65
2022-09-23T03:41:16.615Z,8.48
2022-09-23T03:43:45.788Z,8.05
2022-09-23T03:46:18.319Z,7.75
2022-09-23T03:48:45.695Z,7.93
2022-09-23T03:51:23.962Z,8.25
2022-09-23T03:53:51.618Z,8.15
2022-09-23T03:56:18.991Z,8.50
2022-09-23T03:58:46.584Z,8.73
2022-09-23T04:01:17.901Z,8.20
2022-09-23T04:03:46.881Z,8.15
2022-09-23T04:06:15.236Z,8.30
2022-09-23T04:08:42.483Z,8.68
2022-09-23T04:11:10.167Z,8.70
2022-09-23T04:13:37.725Z,8.85
2022-09-23T04:16:05.245Z,8.63
2022-09-23T04:18:32.685Z,7.50
2022-09-23T04:21:00.217Z,8.32
2022-09-23T04:23:27.908Z,8.43
2022-09-23T04:25:55.599Z,8.55
2022-09-23T04:28:23.799Z,8.35
2022-09-23T04:30:51.666Z,8.70
2022-09-23T04:33:19.186Z,9.20
2022-09-23T04:35:52.404Z,9.02
2022-09-23T04:38:19.778Z,8.68
2022-09-23T04:40:48.469Z,9.13
2022-09-23T04:43:16.960Z,9.25
2022-09-23T04:45:44.402Z,9.30
2022-09-23T04:48:13.899Z,9.20
2022-09-23T04:50:41.352Z,8.90
2022-09-23T04:53:08.714Z,9.30
2022-09-23T04:55:36.359Z,9.20
2022-09-23T04:58:04.303Z,9.88
2022-09-23T05:00:31.844Z,9.68
2022-09-23T05:02:59.179Z,10.48
2022-09-23T05:05:27.084Z,9.18
2022-09-23T05:07:57.874Z,10.90
2022-09-23T05:10:25.117Z,9.50
2022-09-23T05:12:56.883Z,9.75
2022-09-23T05:15:25.092Z,10.43
2022-09-23T05:17:52.361Z,9.50
2022-09-23T05:20:19.620Z,9.57
2022-09-23T05:22:46.816Z,9.43
2022-09-23T05:25:14.492Z,9.25
2022-09-23T05:27:42.347Z,8.93
2022-09-23T05:30:10.527Z,9.93
2022-09-23T05:32:38.381Z,9.57
2022-09-23T05:35:06.286Z,11.15
2022-09-23T05:37:33.604Z,10.02
2022-09-23T05:40:01.598Z,9.35
2022-09-23T05:42:29.108Z,10.57
2022-09-23T05:44:56.400Z,9.95
2022-09-23T05:47:23.802Z,9.88
2022-09-23T05:49:59.744Z,9.20
2022-09-23T05:52:28.296Z,9.77
2022-09-23T05:54:55.554Z,10.07
2022-09-23T05:57:22.815Z,9.20
2022-09-23T05:59:50.613Z,10.85
2022-09-23T06:02:17.933Z,10.07
2022-09-23T06:04:45.925Z,10.23
2022-09-23T06:07:13.862Z,11.35
2022-09-23T06:09:42.288Z,10.45
2022-09-23T06:12:09.580Z,11.85
2022-09-23T06:14:37.534Z,9.90
2022-09-23T06:17:05.607Z,10.77
2022-09-23T06:19:33.016Z,10.85
2022-09-23T06:22:00.369Z,10.18
2022-09-23T06:24:31.333Z,9.82
2022-09-23T06:27:01.001Z,11.43
2022-09-23T06:29:30.843Z,11.27
2022-09-23T06:31:59.630Z,10.75
2022-09-23T06:34:27.093Z,10.52
2022-09-23T06:36:55.767Z,9.73
2022-09-23T06:39:23.276Z,9.75
2022-09-23T06:41:50.645Z,9.93
2022-09-23T06:44:17.891Z,10.70
2022-09-23T06:46:45.217Z,10.60
2022-09-23T06:49:13.287Z,10.27
2022-09-23T06:51:41.884Z,11.02
2022-09-23T06:54:11.073Z,12.95
2022-09-23T06:56:39.739Z,12.30
2022-09-23T06:59:10.801Z,10.18
2022-09-23T07:01:38.203Z,11.17
2022-09-23T07:04:07.591Z,10.38
2022-09-23T07:06:35.699Z,10.23
2022-09-23T07:09:03.933Z,10.77
2022-09-23T07:11:31.908Z,10.60
2022-09-23T07:13:59.138Z,11.18
2022-09-23T07:16:27.253Z,10.90
2022-09-23T07:18:55.089Z,11.40
2022-09-23T07:21:22.664Z,11.23
2022-09-23T07:23:51.828Z,11.98
2022-09-23T07:26:19.964Z,12.45
2022-09-23T07:28:48.441Z,11.05
2022-09-23T07:31:30.018Z,11.18
2022-09-23T07:34:02.315Z,11.02
2022-09-23T07:36:32.616Z,12.70
2022-09-23T07:39:02.254Z,11.38
2022-09-23T07:41:31.651Z,11.77
2022-09-23T07:44:00.399Z,11.52
2022-09-23T07:46:30.968Z,11.57
2022-09-23T07:49:00.561Z,11.73
2022-09-23T07:51:35.691Z,10.88
2022-09-23T07:54:07.959Z,10.82
2022-09-23T07:56:36.353Z,10.93
2022-09-23T07:59:05.766Z,11.25
2022-09-23T08:01:36.063Z,9.82
2022-09-23T08:04:07.252Z,11.32
2022-09-23T08:06:35.838Z,11.27
2022-09-23T08:09:03.562Z,10.27
2022-09-23T08:11:31.311Z,10.05
2022-09-23T08:13:59.101Z,10.18
2022-09-23T08:16:27.118Z,9.68
2022-09-23T08:18:54.437Z,10.65
2022-09-23T08:21:22.837Z,10.52
2022-09-23T08:23:51.856Z,10.75
2022-09-23T08:26:22.317Z,8.93
2022-09-23T08:28:53.880Z,9.63
2022-09-23T08:31:22.558Z,9.18
2022-09-23T08:33:57.816Z,8.48
2022-09-23T08:36:27.311Z,8.88
2022-09-23T08:38:55.317Z,9.00
2022-09-23T08:41:59.076Z,8.52
2022-09-23T08:44:55.108Z,8.82
2022-09-23T08:47:43.663Z,7.95
2022-09-23T08:50:22.622Z,7.82
2022-09-23T08:53:03.040Z,7.68
2022-09-23T08:55:35.774Z,7.57
2022-09-23T08:58:41.744Z,6.90
2022-09-23T09:01:35.699Z,6.43
2022-09-23T09:04:14.684Z,6.60
2022-09-23T09:10:20.932Z,7.07
2022-09-23T09:12:51.159Z,5.80
2022-09-23T09:15:27.274Z,6.47
2022-09-23T09:18:15.434Z,5.57
2022-09-23T09:21:11.371Z,5.32
2022-09-23T09:23:58.229Z,5.68
2022-09-23T09:26:28.309Z,5.93
2022-09-23T09:29:11.383Z,5.53
2022-09-23T09:31:50.782Z,5.10
2022-09-23T09:34:38.144Z,5.30
2022-09-23T09:37:09.080Z,5.15
2022-09-23T09:39:37.229Z,4.93
2022-09-23T09:42:06.160Z,4.88
2022-09-23T09:44:48.751Z,5.20
2022-09-23T09:47:40.487Z,5.75
2022-09-23T09:50:13.914Z,5.78
2022-09-23T09:52:43.078Z,5.22
2022-09-23T09:55:13.739Z,4.60
2022-09-23T09:58:01.586Z,4.77
2022-09-23T10:00:30.104Z,4.68
2022-09-23T10:03:02.768Z,4.75
2022-09-23T10:05:52.285Z,4.55
2022-09-23T10:08:35.344Z,4.70
2022-09-23T10:11:02.601Z,4.80
2022-09-23T10:13:31.555Z,4.82
2022-09-23T10:16:02.941Z,5.40
2022-09-23T10:21:26.875Z,6.07
2022-09-23T10:23:58.660Z,5.97
2022-09-23T10:26:32.239Z,4.13
2022-09-23T10:29:36.753Z,4.10
2022-09-23T10:32:30.191Z,4.07
2022-09-23T10:35:01.583Z,4.70
2022-09-23T10:37:55.054Z,4.60
2022-09-23T10:40:50.739Z,3.63
2022-09-23T10:43:58.647Z,4.30
2022-09-23T10:46:58.177Z,4.32
2022-09-23T10:49:44.473Z,3.85
2022-09-23T10:52:22.214Z,4.28
2022-09-23T10:55:10.945Z,3.60
2022-09-23T10:57:57.124Z,4.20
2022-09-23T11:00:40.944Z,3.58
2022-09-23T11:03:17.638Z,3.38
2022-09-23T11:05:56.849Z,3.40
2022-09-23T11:08:37.185Z,3.60
2022-09-23T11:11:43.244Z,4.10
2022-09-23T11:14:32.813Z,4.13
2022-09-23T11:17:29.115Z,4.25
2022-09-23T11:20:05.769Z,3.75
2022-09-23T11:22:43.987Z,3.17
2022-09-23T11:25:31.869Z,4.07
2022-09-23T11:28:46.105Z,3.35
2022-09-23T11:31:23.442Z,3.50
2022-09-23T11:34:12.964Z,4.30
2022-09-23T11:36:47.103Z,3.80
2022-09-23T11:39:24.389Z,3.30
2022-09-23T11:41:56.417Z,3.42
2022-09-23T11:44:31.950Z,3.30
2022-09-23T11:47:10.855Z,4.10
2022-09-23T11:49:39.265Z,4.03
2022-09-23T11:52:20.417Z,4.07
2022-09-23T11:54:57.246Z,3.83
2022-09-23T11:57:38.011Z,3.38
2022-09-23T12:00:19.216Z,3.97
2022-09-23T12:03:29.141Z,4.10
2022-09-23T12:06:09.153Z,3.58
2022-09-23T12:08:37.496Z,4.03
2022-09-23T12:11:16.989Z,4.68
2022-09-23T12:14:15.309Z,4.15
2022-09-23T12:17:07.142Z,4.18
2022-09-23T12:20:09.494Z,4.05
2022-09-23T12:23:06.109Z,4.22
2022-09-23T12:26:06.728Z,4.60
2022-09-23T12:28:45.008Z,4.70
2022-09-23T12:31:22.193Z,3.85
2022-09-23T12:33:54.337Z,4.93
2022-09-23T12:36:40.204Z,5.18
2022-09-23T12:39:19.676Z,5.18
2022-09-23T12:41:50.675Z,4.25
2022-09-23T12:44:29.433Z,4.78
2022-09-23T12:47:15.067Z,5.63
2022-09-23T12:49:44.305Z,5.63
2022-09-23T12:52:16.465Z,5.55
2022-09-23T12:54:48.754Z,5.55
2022-09-23T12:57:34.149Z,5.00
2022-09-23T13:00:22.517Z,4.57
2022-09-23T13:03:09.641Z,4.50
2022-09-23T13:06:07.802Z,3.70
2022-09-23T13:08:40.423Z,4.95
2022-09-23T13:11:28.612Z,5.90
2022-09-23T13:14:00.597Z,4.90
2022-09-23T13:16:34.677Z,5.63
2022-09-23T13:19:05.902Z,5.03
2022-09-23T13:21:42.252Z,5.40
2022-09-23T13:24:28.910Z,7.40
2022-09-23T13:27:05.656Z,5.18
2022-09-23T13:29:49.767Z,4.55
2022-09-23T13:32:21.688Z,6.28
2022-09-23T13:35:02.148Z,5.95
2022-09-23T13:37:39.012Z,5.78
2022-09-23T13:40:18.914Z,4.85
2022-09-23T13:42:55.299Z,5.32
2022-09-23T13:45:24.407Z,5.28
2022-09-23T13:47:54.691Z,3.70
2022-09-23T13:50:24.200Z,4.93
2022-09-23T13:52:58.688Z,6.18
2022-09-23T13:55:28.413Z,5.22
2022-09-23T13:58:05.018Z,5.57
2022-09-23T14:00:35.506Z,5.80
2022-09-23T14:03:17.095Z,5.13
2022-09-23T14:05:46.384Z,3.90
2022-09-23T14:08:14.229Z,4.85
2022-09-23T14:10:46.277Z,4.20
2022-09-23T14:13:25.674Z,5.30
2022-09-23T14:16:01.372Z,4.25
2022-09-23T14:18:36.491Z,4.88
2022-09-23T14:21:04.911Z,4.43
2022-09-23T14:23:33.436Z,5.45
2022-09-23T14:26:03.065Z,4.40
2022-09-23T14:28:32.108Z,4.28
2022-09-23T14:31:00.722Z,4.88
2022-09-23T14:33:32.732Z,4.47
2022-09-23T14:36:08.912Z,3.33
2022-09-23T14:38:51.734Z,4.18
2022-09-23T14:41:25.025Z,3.53
2022-09-23T14:43:58.971Z,4.20
2022-09-23T14:46:29.651Z,4.28
2022-09-23T14:51:45.640Z,4.15
2022-09-23T14:54:52.460Z,3.08
2022-09-23T14:57:23.316Z,3.60
2022-09-23T14:59:54.800Z,4.00
2022-09-23T15:02:28.939Z,2.78
2022-09-23T15:05:20.097Z,3.22
2022-09-23T15:07:53.496Z,4.22
2022-09-23T15:10:27.176Z,4.00
2022-09-23T15:13:03.241Z,3.80
2022-09-23T15:15:30.685Z,3.50
2022-09-23T15:18:24.817Z,3.70
2022-09-23T15:20:56.131Z,3.72
2022-09-23T15:23:42.574Z,3.97
2022-09-23T15:26:16.909Z,4.35
2022-09-23T15:28:44.878Z,5.38
2022-09-23T15:31:13.236Z,4.63
2022-09-23T15:33:40.999Z,5.13
2022-09-23T15:36:17.837Z,5.40
2022-09-23T15:38:46.288Z,4.32
2022-09-23T15:41:14.395Z,6.60
2022-09-23T15:43:42.292Z,6.95
2022-09-23T15:46:22.538Z,7.28
2022-09-23T15:48:58.882Z,3.80
2022-09-23T15:51:28.179Z,7.55
2022-09-23T15:53:56.279Z,5.20
2022-09-23T15:56:26.946Z,6.35
2022-09-23T15:58:54.268Z,6.93
2022-09-23T16:01:30.602Z,7.55
2022-09-23T16:04:01.095Z,6.57
2022-09-23T16:06:28.339Z,7.03
2022-09-23T16:08:55.869Z,6.30
2022-09-23T16:11:27.416Z,6.60
2022-09-23T16:13:55.851Z,7.45
2022-09-23T16:16:24.561Z,6.60
2022-09-23T16:18:52.326Z,7.15
2022-09-23T16:21:23.630Z,7.20
2022-09-23T16:23:51.510Z,6.82
2022-09-23T16:26:20.741Z,7.03
2022-09-23T16:28:50.247Z,7.13
2022-09-23T16:31:19.322Z,7.20
2022-09-23T16:33:48.606Z,8.52
2022-09-23T16:36:28.573Z,9.05
2022-09-23T16:38:55.854Z,8.10
2022-09-23T16:41:24.701Z,9.50
2022-09-23T16:43:53.557Z,9.60
2022-09-23T16:46:22.523Z,9.15
2022-09-23T16:48:52.945Z,8.88
2022-09-23T16:51:23.758Z,9.50
2022-09-23T16:53:52.131Z,9.75
2022-09-23T16:56:27.268Z,10.20
2022-09-23T16:58:57.027Z,10.20
2022-09-23T17:01:46.032Z,10.60
2022-09-23T17:04:15.263Z,10.68
2022-09-23T17:06:44.590Z,9.95
2022-09-23T17:09:13.314Z,10.10
2022-09-23T17:11:41.351Z,10.93
2022-09-23T17:14:10.304Z,10.82
2022-09-23T17:16:37.592Z,11.18
2022-09-23T17:19:10.949Z,10.95
2022-09-23T17:21:38.609Z,11.15
2022-09-23T17:24:06.844Z,11.48
2022-09-23T17:26:34.915Z,10.93
2022-09-23T17:29:02.401Z,11.38
2022-09-23T17:31:30.616Z,10.63
2022-09-23T17:33:58.400Z,12.25
2022-09-23T17:36:27.986Z,11.15
2022-09-23T17:38:56.608Z,11.80
2022-09-23T17:41:24.203Z,11.07
2022-09-23T17:43:57.085Z,11.50
2022-09-23T17:46:24.774Z,11.18
2022-09-23T17:48:55.459Z,10.80
2022-09-23T17:51:24.154Z,11.88
2022-09-23T17:53:51.473Z,11.18
2022-09-23T17:56:29.973Z,10.65
2022-09-23T17:59:00.642Z,10.95
2022-09-23T18:01:29.416Z,11.33
2022-09-23T18:03:59.202Z,10.52
2022-09-23T18:06:31.736Z,10.93
2022-09-23T18:09:04.406Z,11.32
2022-09-23T18:11:41.246Z,11.57
2022-09-23T18:14:15.311Z,11.02
2022-09-23T18:16:44.438Z,10.95
2022-09-23T18:19:14.904Z,11.57
2022-09-23T18:21:45.259Z,11.68
2022-09-23T18:27:00.908Z,11.23
2022-09-23T18:29:28.756Z,11.68
2022-09-23T18:31:56.711Z,11.27
2022-09-23T18:34:25.296Z,11.38
2022-09-23T18:36:55.895Z,12.00
2022-09-23T18:39:23.137Z,10.40
2022-09-23T18:41:51.003Z,11.30
2022-09-23T18:44:19.828Z,10.75
2022-09-23T18:46:47.064Z,10.48
2022-09-23T18:49:32.848Z,11.70
2022-09-23T18:52:00.200Z,10.82
2022-09-23T18:54:28.959Z,10.95
2022-09-23T18:56:56.536Z,11.57
2022-09-23T18:59:28.001Z,11.27
2022-09-23T19:04:25.122Z,11.23
2022-09-23T19:06:53.946Z,11.02
2022-09-23T19:09:21.576Z,11.20
2022-09-23T19:11:53.311Z,10.27
2022-09-23T19:14:21.285Z,10.65
2022-09-23T19:16:49.405Z,9.30
2022-09-23T19:19:17.202Z,9.80
2022-09-23T19:21:44.655Z,10.20
2022-09-23T19:24:15.595Z,10.55
2022-09-23T19:26:44.241Z,10.70
2022-09-23T19:29:16.733Z,10.52
2022-09-23T19:31:44.494Z,10.50
2022-09-23T19:34:17.755Z,10.90
2022-09-23T19:36:47.178Z,11.45
2022-09-23T19:39:18.293Z,9.90
2022-09-23T19:41:46.589Z,9.85
2022-09-23T19:44:15.201Z,10.68
2022-09-23T19:46:45.566Z,11.00
2022-09-23T19:49:13.681Z,9.97
2022-09-23T19:51:41.192Z,11.10
2022-09-23T19:54:09.177Z,10.80
2022-09-23T19:56:36.877Z,10.20
2022-09-23T19:59:09.172Z,10.40
2022-09-23T20:01:37.241Z,11.73
2022-09-23T20:04:05.552Z,11.70
2022-09-23T20:06:34.733Z,11.00
2022-09-23T20:09:02.668Z,10.52
2022-09-23T20:11:30.416Z,10.10
2022-09-23T20:14:04.249Z,11.40
2022-09-23T20:16:34.405Z,12.82
2022-09-23T20:19:03.925Z,12.30
2022-09-23T20:21:33.643Z,12.70
2022-09-23T20:24:01.895Z,12.07
2022-09-23T20:26:48.987Z,12.05
2022-09-23T20:29:16.862Z,11.93
2022-09-23T20:31:44.545Z,12.13
2022-09-23T20:34:12.190Z,12.02
2022-09-23T20:36:41.179Z,12.43
2022-09-23T20:39:10.271Z,13.18
2022-09-23T20:41:39.182Z,13.43
2022-09-23T20:44:11.598Z,13.02
2022-09-23T20:46:39.092Z,13.90
2022-09-23T20:49:08.940Z,13.32
2022-09-23T20:51:37.109Z,12.88
2022-09-23T20:54:04.439Z,12.38
2022-09-23T20:56:31.819Z,12.88
2022-09-23T20:59:00.877Z,13.75
2022-09-23T21:01:28.503Z,12.98
2022-09-23T21:03:56.224Z,13.13
2022-09-23T21:06:25.135Z,13.60
2022-09-23T21:08:54.532Z,13.93
2022-09-23T21:11:23.430Z,13.77
2022-09-23T21:13:52.415Z,14.23
2022-09-23T21:16:24.610Z,14.90
2022-09-23T21:18:52.287Z,12.90
2022-09-23T21:21:22.113Z,13.63
2022-09-23T21:23:51.223Z,13.77
2022-09-23T21:26:21.173Z,13.82
2022-09-23T21:28:59.265Z,13.60
2022-09-23T21:31:28.079Z,14.18
2022-09-23T21:33:59.051Z,14.70
2022-09-23T21:36:37.533Z,14.07
2022-09-23T21:39:06.786Z,13.80
2022-09-23T21:41:34.230Z,13.93
2022-09-23T21:44:04.627Z,14.70
2022-09-23T21:46:35.235Z,12.65
2022-09-23T21:49:03.853Z,13.38
